QRO weather

Querétaro Intercontinental Airport
Querétaro, Queretaro, Mexico

Public forecast

Using degrees Celsius for public forecast. Weather courtesy of forecast.io.

Current aviation weather report (METAR) for Querétaro Intercontinental Airport

Retrieved 2019/10/19 13:44 UTC (32 minutes ago):

MMQT 191344Z 27004KT 10SM FEW020 BKN090 16/14 A3021 RMK 8/530

Aviation forecast (TAF) for Querétaro Intercontinental Airport

Forecast is more than 6 hours old.

Retrieved 2019/10/19 06:57 UTC (7 hours ago):

TAF MMQT 190454Z 1906/2006 32005KT P6SM BKN020 BKN100 FM191000 00000KT 3SM BR OVC015 TEMPO 1911/1915 1SM BR OVC010 FM191600 00000KT 5SM HZ BKN015 BKN080 TEMPO 1921/2001 4SM TSRA BKN015CB